createdAt,value
2019-03-29T00:00:22.976Z,25.75
2019-03-29T00:01:27.245Z,26.70
2019-03-29T00:02:32.972Z,27.65
2019-03-29T00:03:43.524Z,26.80
2019-03-29T00:04:52.254Z,26.33
2019-03-29T00:05:57.944Z,28.20
2019-03-29T00:07:02.216Z,27.82
2019-03-29T00:08:14.442Z,28.62
2019-03-29T00:09:15.527Z,29.52
2019-03-29T00:10:20.290Z,29.50
2019-03-29T00:11:24.956Z,27.62
2019-03-29T00:12:31.058Z,27.10
2019-03-29T00:13:36.368Z,28.45
2019-03-29T00:14:43.250Z,27.15
2019-03-29T00:15:47.207Z,26.23
2019-03-29T00:16:57.047Z,28.30
2019-03-29T00:18:07.653Z,27.48
2019-03-29T00:19:14.136Z,29.30
2019-03-29T00:20:20.201Z,26.15
2019-03-29T00:21:24.517Z,28.50
2019-03-29T00:22:31.396Z,29.15
2019-03-29T00:23:35.568Z,30.97
2019-03-29T00:24:43.059Z,28.60
2019-03-29T00:25:54.943Z,29.00
2019-03-29T00:27:03.915Z,29.35
2019-03-29T00:28:12.462Z,28.73
2019-03-29T00:29:21.224Z,29.12
2019-03-29T00:30:27.024Z,29.00
2019-03-29T00:31:33.856Z,31.48
2019-03-29T00:32:38.048Z,30.23
2019-03-29T00:33:47.119Z,30.20
2019-03-29T00:34:57.693Z,29.55
2019-03-29T00:35:58.425Z,30.10
2019-03-29T00:37:06.128Z,32.03
2019-03-29T00:38:19.393Z,30.85
2019-03-29T00:39:26.634Z,32.35
2019-03-29T00:40:30.876Z,28.92
2019-03-29T00:41:36.886Z,32.00
2019-03-29T00:42:43.108Z,29.82
2019-03-29T00:43:49.088Z,30.97
2019-03-29T00:44:56.772Z,30.52
2019-03-29T00:46:00.406Z,30.45
2019-03-29T00:47:08.977Z,30.90
2019-03-29T00:48:13.372Z,31.10
2019-03-29T00:49:24.683Z,30.75
2019-03-29T00:50:32.383Z,29.70
2019-03-29T00:51:37.431Z,29.18
2019-03-29T00:52:58.108Z,30.27
2019-03-29T00:53:54.020Z,28.52
2019-03-29T00:55:00.442Z,30.95
2019-03-29T00:56:05.876Z,32.67
2019-03-29T00:57:10.204Z,29.90
2019-03-29T00:58:16.965Z,32.08
2019-03-29T00:59:26.903Z,30.20
2019-03-29T01:00:31.355Z,30.35
2019-03-29T01:01:50.186Z,30.43
2019-03-29T01:02:53.656Z,27.93
2019-03-29T01:04:06.778Z,29.30
2019-03-29T01:05:14.308Z,27.93
2019-03-29T01:06:23.165Z,29.07
2019-03-29T01:07:45.618Z,28.17
2019-03-29T01:08:38.405Z,28.87
2019-03-29T01:09:45.590Z,26.87
2019-03-29T01:10:52.282Z,28.25
2019-03-29T01:12:00.843Z,30.95
2019-03-29T01:13:05.252Z,31.42
2019-03-29T01:14:13.556Z,29.75
2019-03-29T01:15:19.340Z,28.95
2019-03-29T01:16:27.835Z,30.23
2019-03-29T01:17:34.476Z,29.82
2019-03-29T01:18:46.188Z,32.05
2019-03-29T01:19:54.453Z,30.62
2019-03-29T01:20:59.985Z,29.12
2019-03-29T01:22:08.958Z,28.25
2019-03-29T01:23:17.622Z,26.37
2019-03-29T01:24:22.176Z,28.77
2019-03-29T01:25:27.870Z,27.40
2019-03-29T01:26:37.904Z,28.57
2019-03-29T01:27:41.265Z,27.98
2019-03-29T01:28:58.886Z,29.52
2019-03-29T01:30:01.135Z,28.60
2019-03-29T01:31:05.436Z,27.85
2019-03-29T01:32:09.719Z,26.75
2019-03-29T01:33:15.774Z,28.95
2019-03-29T01:34:24.589Z,27.52
2019-03-29T01:35:30.455Z,29.32
2019-03-29T01:36:34.663Z,28.50
2019-03-29T01:37:39.057Z,30.80
2019-03-29T01:38:43.352Z,27.37
2019-03-29T01:39:52.078Z,28.65
2019-03-29T01:40:53.450Z,30.00
2019-03-29T01:42:03.569Z,30.27
2019-03-29T01:43:07.872Z,30.27
2019-03-29T01:44:12.139Z,31.65
2019-03-29T01:45:19.935Z,28.92
2019-03-29T01:46:30.432Z,30.43
2019-03-29T01:47:37.912Z,29.70
2019-03-29T01:48:42.219Z,31.15
2019-03-29T01:49:50.904Z,26.23
2019-03-29T01:50:58.273Z,30.32
2019-03-29T01:52:07.000Z,30.12
2019-03-29T01:53:15.616Z,26.80
2019-03-29T01:54:21.446Z,32.80
2019-03-29T01:55:25.884Z,32.55
2019-03-29T01:56:38.832Z,31.20
2019-03-29T01:57:48.188Z,30.17
2019-03-29T01:58:52.410Z,30.55
2019-03-29T01:59:57.756Z,29.32
2019-03-29T02:01:21.396Z,29.95
2019-03-29T02:02:30.262Z,27.25
2019-03-29T02:03:39.991Z,30.30
2019-03-29T02:04:52.550Z,30.45
2019-03-29T02:05:53.898Z,30.12
2019-03-29T02:06:59.421Z,31.17
2019-03-29T02:08:18.241Z,29.57
2019-03-29T02:09:13.932Z,30.82
2019-03-29T02:10:18.296Z,29.63
2019-03-29T02:11:29.860Z,30.48
2019-03-29T02:12:34.220Z,29.67
2019-03-29T02:13:43.748Z,29.67
2019-03-29T02:14:49.744Z,22.35
2019-03-29T02:15:55.698Z,30.00
2019-03-29T02:17:01.540Z,31.87
2019-03-29T02:18:07.281Z,32.08
2019-03-29T02:19:11.533Z,31.23
2019-03-29T02:20:15.756Z,29.00
2019-03-29T02:21:20.066Z,31.37
2019-03-29T02:22:26.861Z,29.57
2019-03-29T02:23:35.318Z,30.23
2019-03-29T02:24:44.690Z,30.37
2019-03-29T02:25:48.912Z,29.67
2019-03-29T02:26:54.558Z,29.72
2019-03-29T02:27:58.748Z,28.42
2019-03-29T02:29:03.046Z,31.62
2019-03-29T02:30:08.767Z,29.95
2019-03-29T02:31:14.354Z,31.80
2019-03-29T02:32:18.429Z,28.83
2019-03-29T02:33:22.610Z,31.73
2019-03-29T02:34:26.906Z,31.65
2019-03-29T02:35:31.101Z,33.33
2019-03-29T02:36:37.965Z,31.37
2019-03-29T02:37:45.573Z,30.90
2019-03-29T02:38:55.453Z,30.80
2019-03-29T02:39:55.569Z,29.20
2019-03-29T02:41:01.446Z,31.80
2019-03-29T02:42:07.875Z,31.77
2019-03-29T02:43:13.792Z,31.33
2019-03-29T02:44:19.351Z,33.23
2019-03-29T02:45:23.792Z,29.40
2019-03-29T02:46:30.837Z,31.65
2019-03-29T02:47:36.627Z,32.63
2019-03-29T02:48:44.544Z,31.42
2019-03-29T02:49:48.576Z,31.07
2019-03-29T02:50:52.836Z,31.27
2019-03-29T02:51:57.074Z,30.88
2019-03-29T02:53:02.629Z,29.18
2019-03-29T02:54:08.564Z,30.85
2019-03-29T02:55:15.530Z,30.65
2019-03-29T02:56:21.384Z,29.80
2019-03-29T02:57:26.837Z,26.73
2019-03-29T02:58:42.584Z,29.95
2019-03-29T02:59:46.782Z,28.77
2019-03-29T03:00:52.625Z,28.23
2019-03-29T03:01:59.705Z,29.67
2019-03-29T03:03:08.120Z,29.75
2019-03-29T03:04:15.491Z,29.00
2019-03-29T03:05:21.428Z,30.27
2019-03-29T03:06:28.704Z,28.20
2019-03-29T03:07:38.422Z,30.32
2019-03-29T03:08:46.668Z,29.18
2019-03-29T03:09:52.897Z,30.02
2019-03-29T03:11:08.401Z,31.37
2019-03-29T03:12:21.359Z,30.85
2019-03-29T03:13:25.722Z,33.15
2019-03-29T03:14:32.953Z,29.52
2019-03-29T03:15:42.833Z,30.68
2019-03-29T03:16:49.573Z,30.23
2019-03-29T03:17:54.602Z,31.87
2019-03-29T03:19:00.541Z,30.30
2019-03-29T03:20:15.066Z,31.57
2019-03-29T03:21:19.658Z,31.55
2019-03-29T03:22:25.542Z,29.02
2019-03-29T03:23:32.123Z,28.35
2019-03-29T03:24:36.522Z,29.60
2019-03-29T03:25:44.562Z,26.70
2019-03-29T03:26:46.539Z,29.92
2019-03-29T03:27:50.851Z,29.75
2019-03-29T03:28:56.708Z,29.87
2019-03-29T03:30:00.956Z,30.08
2019-03-29T03:31:06.778Z,30.17
2019-03-29T03:32:13.063Z,28.45
2019-03-29T03:33:18.549Z,30.00
2019-03-29T03:34:22.665Z,32.10
2019-03-29T03:35:29.476Z,29.63
2019-03-29T03:36:33.769Z,29.57
2019-03-29T03:37:39.511Z,29.23
2019-03-29T03:38:43.684Z,29.40
2019-03-29T03:39:49.423Z,27.10
2019-03-29T03:40:54.865Z,27.20
2019-03-29T03:42:00.330Z,26.90
2019-03-29T03:43:04.577Z,26.05
2019-03-29T03:44:08.778Z,29.10
2019-03-29T03:45:13.257Z,27.95
2019-03-29T03:46:17.479Z,29.23
2019-03-29T03:47:21.618Z,28.77
2019-03-29T03:48:28.569Z,29.48
2019-03-29T03:49:31.481Z,30.10
2019-03-29T03:50:41.715Z,28.02
2019-03-29T03:51:47.136Z,30.08
2019-03-29T03:52:51.229Z,30.30
2019-03-29T03:53:58.787Z,31.95
2019-03-29T03:55:03.992Z,32.40
2019-03-29T03:56:11.809Z,32.88
2019-03-29T03:57:24.203Z,31.93
2019-03-29T03:58:30.074Z,31.80
2019-03-29T03:59:40.390Z,29.37
2019-03-29T04:01:54.895Z,32.30
2019-03-29T04:03:05.029Z,32.00
2019-03-29T04:04:10.994Z,31.93
2019-03-29T04:05:18.445Z,30.85
2019-03-29T04:06:25.840Z,32.20
2019-03-29T04:07:33.382Z,33.28
2019-03-29T04:08:37.572Z,31.07
2019-03-29T04:09:50.064Z,33.50
2019-03-29T04:10:47.906Z,29.70
2019-03-29T04:12:00.605Z,29.23
2019-03-29T04:13:02.695Z,32.03
2019-03-29T04:14:08.547Z,29.18
2019-03-29T04:15:12.907Z,30.52
2019-03-29T04:16:17.127Z,33.18
2019-03-29T04:17:32.215Z,32.80
2019-03-29T04:18:31.006Z,33.78
2019-03-29T04:19:39.697Z,33.83
2019-03-29T04:20:45.374Z,32.48
2019-03-29T04:22:01.413Z,33.58
2019-03-29T04:23:06.801Z,32.20
2019-03-29T04:24:15.366Z,32.80
2019-03-29T04:25:22.756Z,31.93
2019-03-29T04:26:28.057Z,32.88
2019-03-29T04:27:38.465Z,31.10
2019-03-29T04:28:44.059Z,33.30
2019-03-29T04:29:55.017Z,33.40
2019-03-29T04:31:01.930Z,31.00
2019-03-29T04:32:06.115Z,35.58
2019-03-29T04:33:13.444Z,33.05
2019-03-29T04:34:19.263Z,31.02
2019-03-29T04:35:24.913Z,31.65
2019-03-29T04:36:29.201Z,33.28
2019-03-29T04:37:35.112Z,33.85
2019-03-29T04:38:40.863Z,31.40
2019-03-29T04:39:45.133Z,33.25
2019-03-29T04:40:53.558Z,32.03
2019-03-29T04:41:57.916Z,29.67
2019-03-29T04:43:02.172Z,28.85
2019-03-29T04:44:15.819Z,32.83
2019-03-29T04:45:18.192Z,31.07
2019-03-29T04:46:27.838Z,32.20
2019-03-29T04:47:32.892Z,34.20
2019-03-29T04:48:40.299Z,32.45
2019-03-29T04:49:44.759Z,31.20
2019-03-29T04:50:50.340Z,32.95
2019-03-29T04:51:54.640Z,32.65
2019-03-29T04:53:01.747Z,32.15
2019-03-29T04:54:09.409Z,31.50
2019-03-29T04:55:13.693Z,31.40
2019-03-29T04:56:18.026Z,30.75
2019-03-29T04:57:23.946Z,31.62
2019-03-29T04:58:33.447Z,30.23
2019-03-29T04:59:39.340Z,32.15
2019-03-29T05:00:43.664Z,32.15
2019-03-29T05:01:47.854Z,32.15
2019-03-29T05:02:56.212Z,34.35
2019-03-29T05:04:03.795Z,31.07
2019-03-29T05:05:07.873Z,31.77
2019-03-29T05:06:12.280Z,31.73
2019-03-29T05:07:21.785Z,31.68
2019-03-29T05:08:26.832Z,31.97
2019-03-29T05:09:31.018Z,32.78
2019-03-29T05:10:39.290Z,31.75
2019-03-29T05:11:49.652Z,32.00
2019-03-29T05:12:55.152Z,32.40
2019-03-29T05:13:59.401Z,32.67
2019-03-29T05:15:04.360Z,31.52
2019-03-29T05:16:11.159Z,31.93
2019-03-29T05:17:18.030Z,32.75
2019-03-29T05:18:23.929Z,29.30
2019-03-29T05:19:30.285Z,30.95
2019-03-29T05:20:37.130Z,32.98
2019-03-29T05:21:44.367Z,32.78
2019-03-29T05:22:50.301Z,29.02
2019-03-29T05:23:57.452Z,30.88
2019-03-29T05:25:03.317Z,30.23
2019-03-29T05:26:09.161Z,31.50
2019-03-29T05:27:14.572Z,31.40
2019-03-29T05:28:18.785Z,30.62
2019-03-29T05:29:27.373Z,29.87
2019-03-29T05:30:31.593Z,30.50
2019-03-29T05:31:35.817Z,32.42
2019-03-29T05:32:41.872Z,29.35
2019-03-29T05:33:46.109Z,31.77
2019-03-29T05:34:50.833Z,30.82
2019-03-29T05:35:56.611Z,30.88
2019-03-29T05:37:00.650Z,28.80
2019-03-29T05:38:05.071Z,28.85
2019-03-29T05:39:13.795Z,29.63
2019-03-29T05:40:33.978Z,27.85
2019-03-29T05:41:33.949Z,28.27
2019-03-29T05:42:35.540Z,30.17
2019-03-29T05:43:39.612Z,29.60
2019-03-29T05:44:45.247Z,29.10
2019-03-29T05:45:49.350Z,30.05
2019-03-29T05:46:53.611Z,30.35
2019-03-29T05:47:57.739Z,28.57
2019-03-29T05:49:03.758Z,31.00
2019-03-29T05:50:08.191Z,27.55
2019-03-29T05:51:16.187Z,27.32
2019-03-29T05:52:20.962Z,26.60
2019-03-29T05:53:25.051Z,27.93
2019-03-29T05:54:30.179Z,28.83
2019-03-29T05:55:35.288Z,27.30
2019-03-29T05:56:40.032Z,28.73
2019-03-29T05:57:44.213Z,29.05
2019-03-29T05:58:52.253Z,25.82
2019-03-29T06:00:06.383Z,25.40
2019-03-29T06:01:13.728Z,26.60
2019-03-29T06:02:34.558Z,26.17
2019-03-29T06:03:42.595Z,26.45
2019-03-29T06:04:49.776Z,24.07
2019-03-29T06:05:58.655Z,25.88
2019-03-29T06:07:08.093Z,24.75
2019-03-29T06:08:12.364Z,24.10
2019-03-29T06:09:19.855Z,25.80
2019-03-29T06:10:28.691Z,24.55
2019-03-29T06:11:42.559Z,25.32
2019-03-29T06:14:02.840Z,25.45
2019-03-29T06:15:45.010Z,24.18
2019-03-29T06:16:23.951Z,25.70
2019-03-29T06:17:54.071Z,25.90
2019-03-29T06:18:49.934Z,26.10
2019-03-29T06:19:54.047Z,24.37
2019-03-29T06:20:58.338Z,25.77
2019-03-29T06:22:06.422Z,25.60
2019-03-29T06:23:14.266Z,23.83
2019-03-29T06:24:22.949Z,24.85
2019-03-29T06:25:30.250Z,24.80
2019-03-29T06:26:34.609Z,24.25
2019-03-29T06:27:40.423Z,26.75
2019-03-29T06:28:45.825Z,24.57
2019-03-29T06:29:54.751Z,26.52
2019-03-29T06:31:00.492Z,25.08
2019-03-29T06:32:07.781Z,23.02
2019-03-29T06:33:14.174Z,23.32
2019-03-29T06:34:20.023Z,24.15
2019-03-29T06:35:26.528Z,24.27
2019-03-29T06:36:39.591Z,24.35
2019-03-29T06:37:47.437Z,24.18
2019-03-29T06:38:52.151Z,24.50
2019-03-29T06:39:58.400Z,23.92
2019-03-29T06:41:06.683Z,23.73
2019-03-29T06:42:12.580Z,23.12
2019-03-29T06:43:19.540Z,22.85
2019-03-29T06:44:26.975Z,23.45
2019-03-29T06:45:31.425Z,22.80
2019-03-29T06:46:38.089Z,23.30
2019-03-29T06:47:41.561Z,23.57
2019-03-29T06:48:49.482Z,22.62
2019-03-29T06:49:55.690Z,22.62
2019-03-29T06:51:05.352Z,25.05
2019-03-29T06:52:11.088Z,24.63
2019-03-29T06:53:15.372Z,22.22
2019-03-29T06:54:19.577Z,23.47
2019-03-29T06:55:28.484Z,22.50
2019-03-29T06:56:42.255Z,19.75
2019-03-29T06:57:45.129Z,20.50
2019-03-29T06:58:53.226Z,21.23
2019-03-29T07:00:02.551Z,22.05
2019-03-29T07:01:09.379Z,22.42
2019-03-29T07:02:15.486Z,21.80
2019-03-29T07:03:21.104Z,21.02
2019-03-29T07:04:28.237Z,21.12
2019-03-29T07:05:36.264Z,19.35
2019-03-29T07:06:41.999Z,21.42
2019-03-29T07:07:49.183Z,20.90
2019-03-29T07:08:54.791Z,20.17
2019-03-29T07:10:01.558Z,19.95
2019-03-29T07:11:17.122Z,19.35
2019-03-29T07:12:12.587Z,20.77
2019-03-29T07:13:16.816Z,19.15
2019-03-29T07:14:28.366Z,18.17
2019-03-29T07:15:31.119Z,20.75
2019-03-29T07:16:39.512Z,19.73
2019-03-29T07:17:45.367Z,18.57
2019-03-29T07:18:51.333Z,19.23
2019-03-29T07:20:00.853Z,18.73
2019-03-29T07:21:20.893Z,17.25
2019-03-29T07:22:17.143Z,18.25
2019-03-29T07:23:31.097Z,17.87
2019-03-29T07:24:34.068Z,17.77
2019-03-29T07:25:38.249Z,17.82
2019-03-29T07:26:44.098Z,18.42
2019-03-29T07:27:52.335Z,17.17
2019-03-29T07:29:01.027Z,18.87
2019-03-29T07:30:09.548Z,14.35
2019-03-29T07:31:15.424Z,14.98
2019-03-29T07:32:20.965Z,16.27
2019-03-29T07:33:30.728Z,15.95
2019-03-29T07:34:36.574Z,14.73
2019-03-29T07:35:42.759Z,15.58
2019-03-29T07:36:47.053Z,13.45
2019-03-29T07:37:51.550Z,13.93
2019-03-29T07:38:55.754Z,13.50
2019-03-29T07:40:00.048Z,13.43
2019-03-29T07:41:06.814Z,12.15
2019-03-29T07:42:12.467Z,11.85
2019-03-29T07:43:18.130Z,12.00
2019-03-29T07:44:23.957Z,11.88
2019-03-29T07:45:28.464Z,12.23
2019-03-29T07:46:32.757Z,11.55
2019-03-29T07:47:39.693Z,11.43
2019-03-29T07:48:48.678Z,10.18
2019-03-29T07:50:02.325Z,10.63
2019-03-29T07:51:10.464Z,10.05
2019-03-29T07:52:16.215Z,9.83
2019-03-29T07:53:23.282Z,9.30
2019-03-29T07:54:27.787Z,10.35
2019-03-29T07:55:37.188Z,9.38
2019-03-29T07:56:46.721Z,8.40
2019-03-29T07:57:53.841Z,9.80
2019-03-29T07:58:57.861Z,9.15
2019-03-29T08:00:02.161Z,10.70
2019-03-29T08:01:08.694Z,9.68
2019-03-29T08:02:16.614Z,9.70
2019-03-29T08:03:23.887Z,10.43
2019-03-29T08:04:29.681Z,10.23
2019-03-29T08:05:35.372Z,10.45
2019-03-29T08:06:39.833Z,10.18
2019-03-29T08:07:47.228Z,9.28
2019-03-29T08:08:54.217Z,10.45
2019-03-29T08:10:03.228Z,9.35
2019-03-29T08:11:05.954Z,9.63
2019-03-29T08:12:13.213Z,9.45
2019-03-29T08:13:20.391Z,10.23
2019-03-29T08:14:27.345Z,10.15
2019-03-29T08:15:32.732Z,10.38
2019-03-29T08:16:39.624Z,9.90
2019-03-29T08:17:43.961Z,9.53
2019-03-29T08:18:48.167Z,10.60
2019-03-29T08:20:24.539Z,10.40
2019-03-29T08:20:59.713Z,11.20
2019-03-29T08:22:04.020Z,10.93
2019-03-29T08:23:08.971Z,11.57
2019-03-29T08:24:17.566Z,11.40
2019-03-29T08:25:21.874Z,11.85
2019-03-29T08:26:27.546Z,12.13
2019-03-29T08:27:31.926Z,12.15
2019-03-29T08:28:37.279Z,12.03
2019-03-29T08:29:41.666Z,12.20
2019-03-29T08:30:50.729Z,11.73
2019-03-29T08:31:55.694Z,13.35
2019-03-29T08:33:00.153Z,11.68
2019-03-29T08:34:04.452Z,12.20
2019-03-29T08:35:12.728Z,13.35
2019-03-29T08:36:19.368Z,11.97
2019-03-29T08:37:26.373Z,12.05
2019-03-29T08:38:30.755Z,12.20
2019-03-29T08:39:34.901Z,12.65
2019-03-29T08:40:40.597Z,13.00
2019-03-29T08:41:59.071Z,11.78
2019-03-29T08:42:53.974Z,12.63
2019-03-29T08:43:58.230Z,13.98
2019-03-29T08:45:04.269Z,13.93
2019-03-29T08:46:08.508Z,12.15
2019-03-29T08:47:12.694Z,12.80
2019-03-29T08:48:16.972Z,12.10
2019-03-29T08:49:24.504Z,12.13
2019-03-29T08:50:28.797Z,12.03
2019-03-29T08:51:33.136Z,12.47
2019-03-29T08:52:37.378Z,11.85
2019-03-29T08:53:41.509Z,12.95
2019-03-29T08:54:51.006Z,13.45
2019-03-29T08:55:51.474Z,10.72
2019-03-29T08:56:55.783Z,11.00
2019-03-29T08:58:03.003Z,10.63
2019-03-29T08:59:07.281Z,11.78
2019-03-29T09:00:15.746Z,10.72
2019-03-29T09:01:21.546Z,12.25
2019-03-29T09:02:27.285Z,11.70
2019-03-29T09:03:31.531Z,12.53
2019-03-29T09:04:38.294Z,11.57
2019-03-29T09:05:42.507Z,11.68
2019-03-29T09:06:53.265Z,10.82
2019-03-29T09:07:55.780Z,11.30
2019-03-29T09:09:02.319Z,12.25
2019-03-29T09:10:09.483Z,10.98
2019-03-29T09:11:15.384Z,11.83
2019-03-29T09:12:21.095Z,11.60
2019-03-29T09:13:26.303Z,12.13
2019-03-29T09:14:31.682Z,11.50
2019-03-29T09:15:35.900Z,11.48
2019-03-29T09:16:40.068Z,12.75
2019-03-29T09:17:44.240Z,11.33
2019-03-29T09:18:48.740Z,11.78
2019-03-29T09:19:52.923Z,11.57
2019-03-29T09:20:58.797Z,10.40
2019-03-29T09:22:03.219Z,11.10
2019-03-29T09:23:10.274Z,11.38
2019-03-29T09:24:21.895Z,10.23
2019-03-29T09:25:21.182Z,11.88
2019-03-29T09:26:25.621Z,11.70
2019-03-29T09:27:32.124Z,11.43
2019-03-29T09:28:39.368Z,11.30
2019-03-29T09:29:43.714Z,11.55
2019-03-29T09:30:49.595Z,11.63
2019-03-29T09:31:53.797Z,11.20
2019-03-29T09:32:58.591Z,11.28
2019-03-29T09:34:03.035Z,11.30
2019-03-29T09:35:07.423Z,11.73
2019-03-29T09:36:11.743Z,11.48
2019-03-29T09:37:16.004Z,11.70
2019-03-29T09:38:24.853Z,12.10
2019-03-29T09:39:30.227Z,11.70
2019-03-29T09:40:34.517Z,11.12
2019-03-29T09:41:38.941Z,11.35
2019-03-29T09:42:44.290Z,10.78
2019-03-29T09:43:48.633Z,10.58
2019-03-29T09:44:54.374Z,10.82
2019-03-29T09:46:03.167Z,10.38
2019-03-29T09:47:07.476Z,12.25
2019-03-29T09:48:13.213Z,11.25
2019-03-29T09:49:17.717Z,10.55
2019-03-29T09:50:23.143Z,10.58
2019-03-29T09:51:31.397Z,10.98
2019-03-29T09:52:35.694Z,10.03
2019-03-29T09:53:42.431Z,10.18
2019-03-29T09:54:46.745Z,10.10
2019-03-29T09:55:53.486Z,10.10
2019-03-29T09:57:00.792Z,10.63
2019-03-29T09:58:04.929Z,9.55
2019-03-29T09:59:09.117Z,10.45
2019-03-29T10:00:20.830Z,9.73
2019-03-29T10:01:22.204Z,10.48
2019-03-29T10:02:26.583Z,11.28
2019-03-29T10:03:31.924Z,10.15
2019-03-29T10:04:40.993Z,10.18
2019-03-29T10:05:41.924Z,10.78
2019-03-29T10:06:47.876Z,9.80
2019-03-29T10:07:53.247Z,10.90
2019-03-29T10:08:57.414Z,10.95
2019-03-29T10:10:05.742Z,10.50
2019-03-29T10:11:10.014Z,9.80
2019-03-29T10:12:15.756Z,10.20
2019-03-29T10:13:21.609Z,8.85
2019-03-29T10:14:28.866Z,9.30
2019-03-29T10:15:33.005Z,9.75
2019-03-29T10:16:40.697Z,9.50
2019-03-29T10:17:44.129Z,9.73
2019-03-29T10:18:48.430Z,9.05
2019-03-29T10:19:54.177Z,8.73
2019-03-29T10:20:58.358Z,9.18
2019-03-29T10:22:04.221Z,8.28
2019-03-29T10:23:14.638Z,9.28
2019-03-29T10:24:20.352Z,8.73
2019-03-29T10:25:24.620Z,9.03
2019-03-29T10:26:30.346Z,8.20
2019-03-29T10:27:37.543Z,9.43
2019-03-29T10:28:43.394Z,10.00
2019-03-29T10:29:49.218Z,9.93
2019-03-29T10:30:55.142Z,10.28
2019-03-29T10:32:01.392Z,10.48
2019-03-29T10:33:07.391Z,9.68
2019-03-29T10:34:13.341Z,10.00
2019-03-29T10:35:19.210Z,9.30
2019-03-29T10:36:23.494Z,8.90
2019-03-29T10:37:32.204Z,9.98
2019-03-29T10:38:36.282Z,9.10
2019-03-29T10:39:41.720Z,9.85
2019-03-29T10:40:48.319Z,8.98
2019-03-29T10:41:55.513Z,8.18
2019-03-29T10:43:01.423Z,9.08
2019-03-29T10:44:07.244Z,9.65
2019-03-29T10:45:12.706Z,8.20
2019-03-29T10:46:17.341Z,9.48
2019-03-29T10:47:40.874Z,8.93
2019-03-29T10:48:27.546Z,9.68
2019-03-29T10:49:31.848Z,9.93
2019-03-29T10:50:36.033Z,9.33
2019-03-29T10:51:53.070Z,8.95
2019-03-29T10:52:55.240Z,8.83
2019-03-29T10:53:59.472Z,8.80
2019-03-29T10:55:04.017Z,8.78
2019-03-29T10:56:08.294Z,10.45
2019-03-29T10:57:13.554Z,8.50
2019-03-29T10:58:21.746Z,8.28
2019-03-29T10:59:27.714Z,8.60
2019-03-29T11:00:42.218Z,8.33
2019-03-29T11:01:53.851Z,8.25
2019-03-29T11:02:59.689Z,8.05
2019-03-29T11:04:05.816Z,8.95
2019-03-29T11:05:10.516Z,8.30
2019-03-29T11:06:14.737Z,8.50
2019-03-29T11:07:19.185Z,8.48
2019-03-29T11:08:23.478Z,8.73
2019-03-29T11:09:27.627Z,8.53
2019-03-29T11:10:40.249Z,8.90
2019-03-29T11:11:45.824Z,7.72
2019-03-29T11:12:56.322Z,8.63
2019-03-29T11:14:04.966Z,7.80
2019-03-29T11:15:09.046Z,9.50
2019-03-29T11:16:16.991Z,8.65
2019-03-29T11:17:21.393Z,9.15
2019-03-29T11:18:29.128Z,8.75
2019-03-29T11:19:35.042Z,9.43
2019-03-29T11:20:41.031Z,9.28
2019-03-29T11:21:45.327Z,9.23
2019-03-29T11:22:49.682Z,8.70
2019-03-29T11:23:54.002Z,8.30
2019-03-29T11:25:02.073Z,8.58
2019-03-29T11:26:09.350Z,9.40
2019-03-29T11:27:13.616Z,8.98
2019-03-29T11:28:20.542Z,9.00
2019-03-29T11:29:26.306Z,8.63
2019-03-29T11:30:41.985Z,9.00
2019-03-29T11:31:40.862Z,9.73
2019-03-29T11:32:44.995Z,9.25
2019-03-29T11:33:53.506Z,10.90
2019-03-29T11:35:00.538Z,9.78
2019-03-29T11:36:04.908Z,9.15
2019-03-29T11:37:10.698Z,8.95
2019-03-29T11:38:15.023Z,9.60
2019-03-29T11:39:23.503Z,9.80
2019-03-29T11:40:26.518Z,9.68
2019-03-29T11:41:33.153Z,9.88
2019-03-29T11:42:42.196Z,9.58
2019-03-29T11:43:46.496Z,9.53
2019-03-29T11:44:57.698Z,10.60
2019-03-29T11:46:03.612Z,10.35
2019-03-29T11:47:07.978Z,9.45
2019-03-29T11:48:12.438Z,10.05
2019-03-29T11:49:19.414Z,9.75
2019-03-29T11:50:28.761Z,9.55
2019-03-29T11:51:32.725Z,10.08
2019-03-29T11:52:38.394Z,10.18
2019-03-29T11:53:45.267Z,10.25
2019-03-29T11:54:50.231Z,10.40
2019-03-29T11:55:56.205Z,10.13
2019-03-29T11:57:01.855Z,10.53
2019-03-29T11:58:07.447Z,11.15
2019-03-29T11:59:16.778Z,9.60
2019-03-29T12:00:26.919Z,9.65
2019-03-29T12:01:31.132Z,10.25
2019-03-29T12:02:36.862Z,9.95
2019-03-29T12:03:42.609Z,9.53
2019-03-29T12:04:49.469Z,10.63
2019-03-29T12:05:56.545Z,10.35
2019-03-29T12:07:03.656Z,9.15
2019-03-29T12:08:11.085Z,9.93
2019-03-29T12:09:15.415Z,10.63
2019-03-29T12:10:21.141Z,11.03
2019-03-29T12:11:28.145Z,10.05
2019-03-29T12:12:34.359Z,9.85
2019-03-29T12:13:41.226Z,11.28
2019-03-29T12:14:44.770Z,13.20
2019-03-29T12:15:49.129Z,10.93
2019-03-29T12:16:56.438Z,11.40
2019-03-29T12:18:00.716Z,10.18
2019-03-29T12:19:08.085Z,10.25
2019-03-29T12:20:13.974Z,10.88
2019-03-29T12:21:20.127Z,9.93
2019-03-29T12:22:24.394Z,9.83
2019-03-29T12:23:30.047Z,10.23
2019-03-29T12:24:34.459Z,10.20
2019-03-29T12:25:41.516Z,11.03
2019-03-29T12:26:45.987Z,9.63
2019-03-29T12:27:52.014Z,10.53
2019-03-29T12:28:57.790Z,10.32
2019-03-29T12:30:06.123Z,9.05
2019-03-29T12:31:16.429Z,9.48
2019-03-29T12:33:34.439Z,9.78
2019-03-29T12:34:39.636Z,9.25
2019-03-29T12:35:45.007Z,9.13
2019-03-29T12:36:53.378Z,9.45
2019-03-29T12:37:57.679Z,9.78
2019-03-29T12:39:02.023Z,9.75
2019-03-29T12:40:11.026Z,9.03
2019-03-29T12:41:15.176Z,10.40
2019-03-29T12:42:21.055Z,11.00
2019-03-29T12:43:25.455Z,9.30
2019-03-29T12:44:29.967Z,9.48
2019-03-29T12:45:34.251Z,10.08
2019-03-29T12:46:40.090Z,9.18
2019-03-29T12:49:11.947Z,9.05
2019-03-29T12:50:17.709Z,10.13
2019-03-29T12:51:23.426Z,9.73
2019-03-29T12:52:29.320Z,10.63
2019-03-29T12:53:36.575Z,10.25
2019-03-29T12:54:42.327Z,9.48
2019-03-29T12:55:49.581Z,9.80
2019-03-29T12:56:56.317Z,9.30
2019-03-29T12:58:02.219Z,10.00
2019-03-29T12:59:09.589Z,10.25
2019-03-29T13:00:19.338Z,9.05
2019-03-29T13:01:38.401Z,9.68
2019-03-29T13:02:35.591Z,9.03
2019-03-29T13:03:45.264Z,9.58
2019-03-29T13:04:49.669Z,10.85
2019-03-29T13:05:54.183Z,9.15
2019-03-29T13:06:58.532Z,10.03
2019-03-29T13:08:02.814Z,9.18
2019-03-29T13:09:10.386Z,9.93
2019-03-29T13:10:18.396Z,9.10
2019-03-29T13:11:25.718Z,8.63
2019-03-29T13:12:31.497Z,9.43
2019-03-29T13:13:35.723Z,9.68
2019-03-29T13:14:43.562Z,8.98
2019-03-29T13:15:48.593Z,9.43
2019-03-29T13:17:02.591Z,9.70
2019-03-29T13:18:09.230Z,8.85
2019-03-29T13:19:13.553Z,9.60
2019-03-29T13:20:17.871Z,9.00
2019-03-29T13:21:22.149Z,9.28
2019-03-29T13:22:26.653Z,9.03
2019-03-29T13:23:35.068Z,10.53
2019-03-29T13:24:39.339Z,9.83
2019-03-29T13:25:45.197Z,8.25
2019-03-29T13:26:54.159Z,9.90
2019-03-29T13:27:59.337Z,8.75
2019-03-29T13:29:03.295Z,9.43
2019-03-29T13:30:08.738Z,9.15
2019-03-29T13:31:13.096Z,9.00
2019-03-29T13:32:19.960Z,9.18
2019-03-29T13:33:25.371Z,9.13
2019-03-29T13:34:31.147Z,9.03
2019-03-29T13:35:38.566Z,9.20
2019-03-29T13:36:45.741Z,9.23
2019-03-29T13:37:50.057Z,8.08
2019-03-29T13:38:58.862Z,8.90
2019-03-29T13:40:03.479Z,9.35
2019-03-29T13:41:07.725Z,9.35
2019-03-29T13:42:12.017Z,9.88
2019-03-29T13:43:17.618Z,9.10
2019-03-29T13:44:25.426Z,8.85
2019-03-29T13:45:30.900Z,9.53
2019-03-29T13:46:38.282Z,10.13
2019-03-29T13:47:42.738Z,9.25
2019-03-29T13:48:47.007Z,9.15
2019-03-29T13:49:51.255Z,9.10
2019-03-29T13:50:59.616Z,9.73
2019-03-29T13:52:04.132Z,7.87
2019-03-29T13:53:08.359Z,8.53
2019-03-29T13:54:17.139Z,7.95
2019-03-29T13:55:21.409Z,8.00
2019-03-29T13:56:28.028Z,7.53
2019-03-29T13:57:36.082Z,7.10
2019-03-29T13:58:39.447Z,8.10
2019-03-29T13:59:44.283Z,8.10
2019-03-29T14:00:50.395Z,8.28
2019-03-29T14:01:57.322Z,7.78
2019-03-29T14:03:05.875Z,7.50
2019-03-29T14:04:11.790Z,7.87
2019-03-29T14:05:17.619Z,7.45
2019-03-29T14:06:23.465Z,6.80
2019-03-29T14:07:27.669Z,8.35
2019-03-29T14:08:32.076Z,8.23
2019-03-29T14:09:36.284Z,8.38
2019-03-29T14:10:40.433Z,7.85
2019-03-29T14:11:46.305Z,7.85
2019-03-29T14:12:53.407Z,7.50
2019-03-29T14:13:57.742Z,7.55
2019-03-29T14:15:02.081Z,9.28
2019-03-29T14:16:08.899Z,7.25
2019-03-29T14:17:14.846Z,8.40
2019-03-29T14:18:19.050Z,8.48
2019-03-29T14:19:25.954Z,8.10
2019-03-29T14:20:32.785Z,8.33
2019-03-29T14:21:39.341Z,8.03
2019-03-29T14:22:45.481Z,8.40
2019-03-29T14:23:49.521Z,8.48
2019-03-29T14:25:00.034Z,8.30
2019-03-29T14:26:04.352Z,7.03
2019-03-29T14:27:08.549Z,8.58